createdAt,value
2023-04-15T00:00:12.693Z,0.00
2023-04-15T00:01:12.644Z,0.00
2023-04-15T00:02:12.723Z,0.00
2023-04-15T00:03:12.812Z,0.00
2023-04-15T00:04:12.699Z,0.00
2023-04-15T00:05:12.509Z,0.00
2023-04-15T00:06:12.475Z,0.00
2023-04-15T00:07:12.425Z,0.00
2023-04-15T00:08:12.388Z,0.00
2023-04-15T00:09:12.348Z,0.00
2023-04-15T00:10:12.318Z,0.00
2023-04-15T00:11:12.288Z,0.00
2023-04-15T00:12:12.257Z,0.00
2023-04-15T00:13:12.223Z,0.00
2023-04-15T00:14:12.166Z,0.00
2023-04-15T00:15:12.134Z,0.00
2023-04-15T00:16:12.108Z,0.00
2023-04-15T00:17:12.055Z,0.00
2023-04-15T00:18:12.018Z,0.00
2023-04-15T00:19:12.153Z,0.00
2023-04-15T00:20:11.963Z,0.00
2023-04-15T00:21:11.918Z,0.00
2023-04-15T00:22:11.871Z,0.00
2023-04-15T00:23:11.831Z,0.00
2023-04-15T00:24:11.797Z,0.00
2023-04-15T00:25:11.759Z,0.00
2023-04-15T00:26:11.732Z,0.00
2023-04-15T00:27:11.699Z,0.00
2023-04-15T00:28:11.672Z,0.00
2023-04-15T00:29:11.620Z,0.00
2023-04-15T00:30:11.596Z,0.00
2023-04-15T00:31:11.584Z,0.00
2023-04-15T00:32:11.500Z,0.00
2023-04-15T00:33:11.462Z,0.00
2023-04-15T00:34:11.426Z,0.00
2023-04-15T00:35:11.403Z,0.00
2023-04-15T00:36:11.352Z,0.00
2023-04-15T00:37:11.330Z,0.00
2023-04-15T00:38:11.275Z,0.00
2023-04-15T00:39:11.241Z,0.00
2023-04-15T00:40:11.205Z,0.00
2023-04-15T00:41:11.176Z,0.00
2023-04-15T00:42:11.132Z,0.00
2023-04-15T00:43:11.093Z,0.00
2023-04-15T00:44:11.053Z,0.00
2023-04-15T00:45:11.018Z,0.00
2023-04-15T00:46:10.988Z,0.00
2023-04-15T00:47:10.943Z,0.00
2023-04-15T00:48:10.913Z,0.00
2023-04-15T00:49:10.867Z,0.00
2023-04-15T00:50:10.834Z,0.00
2023-04-15T00:51:10.805Z,0.00
2023-04-15T00:52:10.756Z,0.00
2023-04-15T00:53:10.728Z,0.00
2023-04-15T00:54:10.691Z,0.00
2023-04-15T00:55:10.643Z,0.00
2023-04-15T00:56:10.609Z,0.00
2023-04-15T00:57:10.568Z,0.00
2023-04-15T00:58:10.534Z,0.00
2023-04-15T00:59:10.495Z,0.00
2023-04-15T01:00:10.462Z,0.00
2023-04-15T01:01:10.459Z,0.00
2023-04-15T01:02:10.539Z,0.00
2023-04-15T01:03:10.443Z,0.00
2023-04-15T01:04:10.491Z,0.00
2023-04-15T01:05:10.285Z,0.00
2023-04-15T01:06:10.238Z,0.00
2023-04-15T01:07:10.204Z,0.00
2023-04-15T01:08:10.157Z,0.00
2023-04-15T01:09:10.135Z,0.00
2023-04-15T01:10:10.091Z,0.00
2023-04-15T01:11:10.066Z,0.00
2023-04-15T01:12:10.034Z,0.00
2023-04-15T01:13:09.970Z,0.00
2023-04-15T01:14:09.939Z,0.00
2023-04-15T01:15:09.905Z,0.00
2023-04-15T01:16:09.905Z,0.00
2023-04-15T01:17:09.839Z,0.00
2023-04-15T01:18:09.790Z,0.00
2023-04-15T01:19:09.754Z,0.00
2023-04-15T01:20:09.719Z,0.00
2023-04-15T01:21:09.690Z,0.00
2023-04-15T01:22:09.638Z,0.00
2023-04-15T01:23:09.596Z,0.00
2023-04-15T01:24:09.567Z,0.00
2023-04-15T01:25:09.539Z,0.00
2023-04-15T01:26:09.487Z,0.00
2023-04-15T01:27:09.450Z,0.00
2023-04-15T01:28:09.416Z,0.00
2023-04-15T01:29:09.389Z,0.00
2023-04-15T01:30:09.347Z,0.00
2023-04-15T01:31:09.332Z,0.00
2023-04-15T01:32:09.262Z,0.00
2023-04-15T01:33:09.232Z,0.00
2023-04-15T01:34:09.196Z,0.00
2023-04-15T01:35:09.150Z,0.00
2023-04-15T01:36:09.131Z,0.00
2023-04-15T01:37:09.087Z,0.00
2023-04-15T01:38:09.054Z,0.00
2023-04-15T01:39:09.021Z,0.00
2023-04-15T01:40:09.006Z,0.00
2023-04-15T01:41:08.954Z,0.00
2023-04-15T01:42:08.891Z,0.00
2023-04-15T01:43:08.853Z,0.00
2023-04-15T01:44:08.826Z,0.00
2023-04-15T01:45:08.775Z,0.00
2023-04-15T01:46:08.743Z,0.00
2023-04-15T01:47:08.713Z,0.00
2023-04-15T01:48:08.663Z,0.00
2023-04-15T01:49:08.637Z,0.00
2023-04-15T01:50:08.660Z,0.00
2023-04-15T01:51:08.565Z,0.00
2023-04-15T01:52:08.530Z,0.00
2023-04-15T01:53:08.499Z,0.00
2023-04-15T01:54:08.443Z,0.00
2023-04-15T01:55:08.416Z,0.00
2023-04-15T01:56:08.371Z,0.00
2023-04-15T01:57:08.342Z,0.00
2023-04-15T01:58:08.294Z,0.00
2023-04-15T01:59:08.261Z,0.00
2023-04-15T02:00:08.252Z,0.00
2023-04-15T02:01:08.202Z,0.00
2023-04-15T02:02:08.218Z,0.00
2023-04-15T02:03:08.158Z,0.00
2023-04-15T02:04:08.219Z,0.00
2023-04-15T02:05:08.034Z,0.00
2023-04-15T02:06:08.017Z,0.00
2023-04-15T02:07:07.961Z,0.00
2023-04-15T02:08:07.918Z,0.00
2023-04-15T02:09:07.884Z,0.00
2023-04-15T02:10:07.859Z,0.00
2023-04-15T02:11:07.803Z,0.00
2023-04-15T02:12:07.769Z,0.00
2023-04-15T02:13:07.733Z,0.00
2023-04-15T02:14:07.696Z,0.00
2023-04-15T02:15:07.676Z,0.00
2023-04-15T02:16:07.679Z,0.00
2023-04-15T02:17:07.588Z,0.00
2023-04-15T02:18:07.551Z,0.00
2023-04-15T02:19:07.889Z,0.00
2023-04-15T02:20:07.467Z,0.00
2023-04-15T02:21:07.434Z,0.00
2023-04-15T02:22:07.389Z,0.00
2023-04-15T02:23:07.394Z,0.00
2023-04-15T02:24:07.318Z,0.00
2023-04-15T02:25:07.282Z,0.00
2023-04-15T02:26:07.242Z,0.00
2023-04-15T02:27:07.211Z,0.00
2023-04-15T02:28:07.164Z,0.00
2023-04-15T02:29:07.139Z,0.00
2023-04-15T02:30:07.095Z,0.00
2023-04-15T02:31:07.065Z,0.00
2023-04-15T02:32:07.072Z,0.00
2023-04-15T02:33:06.981Z,0.00
2023-04-15T02:34:06.952Z,0.00
2023-04-15T02:35:06.914Z,0.00
2023-04-15T02:36:06.868Z,0.00
2023-04-15T02:37:06.836Z,0.00
2023-04-15T02:38:06.798Z,0.00
2023-04-15T02:39:06.760Z,0.00
2023-04-15T02:40:06.713Z,0.00
2023-04-15T02:41:06.680Z,0.00
2023-04-15T02:42:06.646Z,0.00
2023-04-15T02:43:06.611Z,0.00
2023-04-15T02:44:06.566Z,0.00
2023-04-15T02:45:06.567Z,0.00
2023-04-15T02:46:06.514Z,0.00
2023-04-15T02:47:06.453Z,0.00
2023-04-15T02:48:06.650Z,0.00
2023-04-15T02:49:06.379Z,0.00
2023-04-15T02:50:06.341Z,0.00
2023-04-15T02:51:06.299Z,0.00
2023-04-15T02:52:06.259Z,0.00
2023-04-15T02:53:06.237Z,0.00
2023-04-15T02:54:06.222Z,0.00
2023-04-15T02:55:06.152Z,0.00
2023-04-15T02:56:06.115Z,0.00
2023-04-15T02:57:06.075Z,0.00
2023-04-15T02:58:06.044Z,0.00
2023-04-15T02:59:05.998Z,0.00
2023-04-15T03:00:05.956Z,0.00
2023-04-15T03:01:05.944Z,0.00
2023-04-15T03:02:05.905Z,0.00
2023-04-15T03:03:05.959Z,0.00
2023-04-15T03:04:05.948Z,0.00
2023-04-15T03:05:05.766Z,0.00
2023-04-15T03:06:05.728Z,0.00
2023-04-15T03:07:05.734Z,0.00
2023-04-15T03:08:05.653Z,0.00
2023-04-15T03:09:05.654Z,0.00
2023-04-15T03:10:05.577Z,0.00
2023-04-15T03:11:05.544Z,0.00
2023-04-15T03:12:05.500Z,0.00
2023-04-15T03:13:05.486Z,0.00
2023-04-15T03:14:05.441Z,0.00
2023-04-15T03:15:05.393Z,0.00
2023-04-15T03:16:05.373Z,0.00
2023-04-15T03:17:05.312Z,0.00
2023-04-15T03:18:05.278Z,0.00
2023-04-15T03:19:05.234Z,0.00
2023-04-15T03:20:05.259Z,0.00
2023-04-15T03:21:05.159Z,0.00
2023-04-15T03:22:05.118Z,0.00
2023-04-15T03:23:05.088Z,0.00
2023-04-15T03:24:05.056Z,0.00
2023-04-15T03:25:05.003Z,0.00
2023-04-15T03:26:04.970Z,0.00
2023-04-15T03:27:04.938Z,0.00
2023-04-15T03:28:04.893Z,0.00
2023-04-15T03:29:04.854Z,0.00
2023-04-15T03:30:04.822Z,0.00
2023-04-15T03:31:04.821Z,0.00
2023-04-15T03:32:04.741Z,0.00
2023-04-15T03:33:04.709Z,0.00
2023-04-15T03:34:04.665Z,0.00
2023-04-15T03:35:04.674Z,0.00
2023-04-15T03:36:04.597Z,0.00
2023-04-15T03:37:04.553Z,0.00
2023-04-15T03:38:04.517Z,0.00
2023-04-15T03:39:04.480Z,0.00
2023-04-15T03:40:04.433Z,0.00
2023-04-15T03:41:04.401Z,0.00
2023-04-15T03:42:04.379Z,0.00
2023-04-15T03:43:04.333Z,0.00
2023-04-15T03:44:04.296Z,0.00
2023-04-15T03:45:04.269Z,0.00
2023-04-15T03:46:04.223Z,0.00
2023-04-15T03:47:04.169Z,0.00
2023-04-15T03:48:16.420Z,0.00
2023-04-15T03:49:04.277Z,0.00
2023-04-15T03:50:04.066Z,0.00
2023-04-15T03:51:04.053Z,0.00
2023-04-15T03:52:03.989Z,0.00
2023-04-15T03:53:03.941Z,0.00
2023-04-15T03:54:03.915Z,0.00
2023-04-15T03:55:03.863Z,0.00
2023-04-15T03:56:03.835Z,0.00
2023-04-15T03:57:03.796Z,0.00
2023-04-15T03:58:03.751Z,0.00
2023-04-15T03:59:03.799Z,0.00
2023-04-15T04:00:03.670Z,0.00
2023-04-15T04:01:03.640Z,0.00
2023-04-15T04:02:03.691Z,0.00
2023-04-15T04:03:03.939Z,0.00
2023-04-15T04:04:03.614Z,0.00
2023-04-15T04:05:03.488Z,0.00
2023-04-15T04:06:03.448Z,0.00
2023-04-15T04:07:03.403Z,0.00
2023-04-15T04:08:03.365Z,0.00
2023-04-15T04:09:03.588Z,0.00
2023-04-15T04:10:03.289Z,0.00
2023-04-15T04:11:03.253Z,0.00
2023-04-15T04:12:03.208Z,0.00
2023-04-15T04:13:03.181Z,0.00
2023-04-15T04:14:03.135Z,0.00
2023-04-15T04:15:03.282Z,0.00
2023-04-15T04:16:03.135Z,0.00
2023-04-15T04:17:03.111Z,0.00
2023-04-15T04:18:03.009Z,0.00
2023-04-15T04:19:03.279Z,0.00
2023-04-15T04:20:02.901Z,0.00
2023-04-15T04:21:02.873Z,0.00
2023-04-15T04:22:02.832Z,0.00
2023-04-15T04:23:02.790Z,0.00
2023-04-15T04:24:02.751Z,0.00
2023-04-15T04:25:02.718Z,0.00
2023-04-15T04:26:02.686Z,0.00
2023-04-15T04:27:02.657Z,0.00
2023-04-15T04:28:02.595Z,0.00
2023-04-15T04:29:02.752Z,0.00
2023-04-15T04:30:02.533Z,0.00
2023-04-15T04:31:02.484Z,0.00
2023-04-15T04:32:02.497Z,0.00
2023-04-15T04:33:02.524Z,0.00
2023-04-15T04:34:02.368Z,0.00
2023-04-15T04:35:02.335Z,0.00
2023-04-15T04:36:02.317Z,0.00
2023-04-15T04:37:02.255Z,0.00
2023-04-15T04:38:02.214Z,0.00
2023-04-15T04:39:02.388Z,0.00
2023-04-15T04:40:02.211Z,0.00
2023-04-15T04:41:02.104Z,0.00
2023-04-15T04:42:02.077Z,0.00
2023-04-15T04:43:02.036Z,0.00
2023-04-15T04:44:01.995Z,0.00
2023-04-15T04:45:01.953Z,0.00
2023-04-15T04:46:01.957Z,0.00
2023-04-15T04:47:01.876Z,0.00
2023-04-15T04:48:01.859Z,0.00
2023-04-15T04:49:02.021Z,0.00
2023-04-15T04:50:01.759Z,0.00
2023-04-15T04:51:01.721Z,0.00
2023-04-15T04:52:01.803Z,0.00
2023-04-15T04:53:01.646Z,0.00
2023-04-15T04:54:03.604Z,0.00
2023-04-15T04:55:01.611Z,0.00
2023-04-15T04:56:01.520Z,0.00
2023-04-15T04:57:01.487Z,0.00
2023-04-15T04:58:01.453Z,0.00
2023-04-15T04:59:01.495Z,0.00
2023-04-15T05:00:01.368Z,5.63
2023-04-15T05:01:01.377Z,5.63
2023-04-15T05:02:01.362Z,5.63
2023-04-15T05:03:01.447Z,5.63
2023-04-15T05:04:01.286Z,5.63
2023-04-15T05:05:01.181Z,5.63
2023-04-15T05:06:01.140Z,5.63
2023-04-15T05:07:01.098Z,5.63
2023-04-15T05:08:01.072Z,5.63
2023-04-15T05:09:01.186Z,5.63
2023-04-15T05:10:00.986Z,5.63
2023-04-15T05:11:00.950Z,5.63
2023-04-15T05:12:00.910Z,5.63
2023-04-15T05:13:00.868Z,11.25
2023-04-15T05:14:00.832Z,11.25
2023-04-15T05:15:00.799Z,11.25
2023-04-15T05:16:00.809Z,11.25
2023-04-15T05:17:00.734Z,11.25
2023-04-15T05:18:00.731Z,11.25
2023-04-15T05:19:00.877Z,11.25
2023-04-15T05:20:00.614Z,11.25
2023-04-15T05:21:00.592Z,11.25
2023-04-15T05:22:00.530Z,11.25
2023-04-15T05:23:00.488Z,11.25
2023-04-15T05:24:00.448Z,11.25
2023-04-15T05:25:00.453Z,16.88
2023-04-15T05:26:00.369Z,16.88
2023-04-15T05:27:00.335Z,16.88
2023-04-15T05:28:00.294Z,16.88
2023-04-15T05:29:00.608Z,16.88
2023-04-15T05:30:00.214Z,16.88
2023-04-15T05:31:00.203Z,16.88
2023-04-15T05:32:00.169Z,16.88
2023-04-15T05:33:00.131Z,16.88
2023-04-15T05:34:00.073Z,16.88
2023-04-15T05:35:00.036Z,16.88
2023-04-15T05:35:59.987Z,16.88
2023-04-15T05:36:59.951Z,22.50
2023-04-15T05:37:59.913Z,22.50
2023-04-15T05:39:00.127Z,22.50
2023-04-15T05:39:59.838Z,22.50
2023-04-15T05:40:59.799Z,22.50
2023-04-15T05:41:59.763Z,22.50
2023-04-15T05:42:59.723Z,22.50
2023-04-15T05:43:59.700Z,22.50
2023-04-15T05:44:59.645Z,22.50
2023-04-15T05:45:59.642Z,22.50
2023-04-15T05:46:59.576Z,22.50
2023-04-15T05:47:59.555Z,22.50
2023-04-15T05:48:59.598Z,22.50
2023-04-15T05:49:59.453Z,22.50
2023-04-15T05:50:59.424Z,22.50
2023-04-15T05:51:59.386Z,22.50
2023-04-15T05:52:59.348Z,22.50
2023-04-15T05:53:59.302Z,22.50
2023-04-15T05:54:59.272Z,22.50
2023-04-15T05:55:59.236Z,22.50
2023-04-15T05:56:59.190Z,28.13
2023-04-15T05:57:59.161Z,28.13
2023-04-15T05:58:59.298Z,28.13
2023-04-15T05:59:59.078Z,28.13
2023-04-15T06:00:59.036Z,28.13
2023-04-15T06:01:59.044Z,28.13
2023-04-15T06:02:59.170Z,28.13
2023-04-15T06:03:58.970Z,28.13
2023-04-15T06:04:58.930Z,28.13
2023-04-15T06:05:58.847Z,28.13
2023-04-15T06:06:58.815Z,28.13
2023-04-15T06:07:58.775Z,28.13
2023-04-15T06:08:58.742Z,28.13
2023-04-15T06:09:58.701Z,28.13
2023-04-15T06:10:58.662Z,28.13
2023-04-15T06:11:58.622Z,28.13
2023-04-15T06:12:58.588Z,28.13
2023-04-15T06:13:58.548Z,33.75
2023-04-15T06:14:59.999Z,33.75
2023-04-15T06:15:58.532Z,33.75
2023-04-15T06:16:58.438Z,33.75
2023-04-15T06:17:58.465Z,33.75
2023-04-15T06:18:58.368Z,33.75
2023-04-15T06:19:58.335Z,33.75
2023-04-15T06:20:58.286Z,33.75
2023-04-15T06:21:58.244Z,33.75
2023-04-15T06:22:58.466Z,33.75
2023-04-15T06:23:58.173Z,33.75
2023-04-15T06:24:58.139Z,33.75
2023-04-15T06:25:58.098Z,33.75
2023-04-15T06:26:58.059Z,33.75
2023-04-15T06:27:58.022Z,33.75
2023-04-15T06:28:57.985Z,33.75
2023-04-15T06:29:57.952Z,33.75
2023-04-15T06:30:57.914Z,33.75
2023-04-15T06:31:57.940Z,33.75
2023-04-15T06:32:57.911Z,33.75
2023-04-15T06:33:57.793Z,33.75
2023-04-15T06:34:57.762Z,33.75
2023-04-15T06:35:57.719Z,33.75
2023-04-15T06:36:57.700Z,33.75
2023-04-15T06:37:57.640Z,33.75
2023-04-15T06:38:57.609Z,28.13
2023-04-15T06:39:57.577Z,28.13
2023-04-15T06:40:57.535Z,28.13
2023-04-15T06:41:57.504Z,28.13
2023-04-15T06:42:57.456Z,28.13
2023-04-15T06:43:57.434Z,28.13
2023-04-15T06:44:57.423Z,28.13
2023-04-15T06:45:57.399Z,28.13
2023-04-15T06:46:57.315Z,28.13
2023-04-15T06:47:57.296Z,28.13
2023-04-15T06:48:57.240Z,28.13
2023-04-15T06:49:57.210Z,28.13
2023-04-15T06:50:57.164Z,28.13
2023-04-15T06:51:57.124Z,28.13
2023-04-15T06:52:57.086Z,28.13
2023-04-15T06:53:57.072Z,33.75
2023-04-15T06:54:57.016Z,33.75
2023-04-15T06:55:56.973Z,33.75
2023-04-15T06:56:56.941Z,33.75
2023-04-15T06:57:56.907Z,33.75
2023-04-15T06:58:56.866Z,33.75
2023-04-15T06:59:56.827Z,33.75
2023-04-15T07:00:56.831Z,33.75
2023-04-15T07:01:56.792Z,39.38
2023-04-15T07:02:56.734Z,39.38
2023-04-15T07:03:56.687Z,39.38
2023-04-15T07:04:56.640Z,39.38
2023-04-15T07:05:56.605Z,39.38
2023-04-15T07:06:56.570Z,39.38
2023-04-15T07:07:56.535Z,45.00
2023-04-15T07:08:56.491Z,45.00
2023-04-15T07:09:56.484Z,45.00
2023-04-15T07:10:56.434Z,45.00
2023-04-15T07:11:56.398Z,45.00
2023-04-15T07:12:56.347Z,50.63
2023-04-15T07:13:56.319Z,50.63
2023-04-15T07:14:56.287Z,50.63
2023-04-15T07:15:56.235Z,50.63
2023-04-15T07:16:56.252Z,50.63
2023-04-15T07:17:56.243Z,50.63
2023-04-15T07:18:56.146Z,50.63
2023-04-15T07:19:56.129Z,50.63
2023-04-15T07:20:56.053Z,50.63
2023-04-15T07:21:56.017Z,50.63
2023-04-15T07:22:55.979Z,50.63
2023-04-15T07:23:55.937Z,50.63
2023-04-15T07:24:55.902Z,50.63
2023-04-15T07:25:55.866Z,50.63
2023-04-15T07:26:55.834Z,50.63
2023-04-15T07:27:55.789Z,50.63
2023-04-15T07:28:55.762Z,50.63
2023-04-15T07:29:55.721Z,50.63
2023-04-15T07:30:55.703Z,50.63
2023-04-15T07:31:55.647Z,50.63
2023-04-15T07:32:55.655Z,50.63
2023-04-15T07:33:55.574Z,50.63
2023-04-15T07:34:55.533Z,50.63
2023-04-15T07:35:55.496Z,50.63
2023-04-15T07:36:55.459Z,50.63
2023-04-15T07:37:55.421Z,50.63
2023-04-15T07:38:55.404Z,50.63
2023-04-15T07:39:55.358Z,50.63
2023-04-15T07:40:55.314Z,56.25
2023-04-15T07:41:55.281Z,56.25
2023-04-15T07:42:55.241Z,56.25
2023-04-15T07:43:55.213Z,56.25
2023-04-15T07:44:55.171Z,56.25
2023-04-15T07:45:55.150Z,56.25
2023-04-15T07:46:55.104Z,61.88
2023-04-15T07:47:55.074Z,61.88
2023-04-15T07:48:55.037Z,61.88
2023-04-15T07:49:54.994Z,61.88
2023-04-15T07:50:54.949Z,61.88
2023-04-15T07:51:54.939Z,67.50
2023-04-15T07:52:54.878Z,67.50
2023-04-15T07:53:54.841Z,67.50
2023-04-15T07:54:54.807Z,67.50
2023-04-15T07:55:54.770Z,67.50
2023-04-15T07:56:54.750Z,67.50
2023-04-15T07:57:54.698Z,67.50
2023-04-15T07:58:54.659Z,67.50
2023-04-15T07:59:54.633Z,67.50
2023-04-15T08:00:54.621Z,67.50
2023-04-15T08:01:54.693Z,67.50
2023-04-15T08:02:54.823Z,67.50
2023-04-15T08:03:54.670Z,67.50
2023-04-15T08:04:54.477Z,67.50
2023-04-15T08:05:54.426Z,67.50
2023-04-15T08:06:54.376Z,67.50
2023-04-15T08:07:54.339Z,73.13
2023-04-15T08:08:54.331Z,73.13
2023-04-15T08:09:54.285Z,73.13
2023-04-15T08:10:54.235Z,73.13
2023-04-15T08:11:54.228Z,73.13
2023-04-15T08:12:54.170Z,73.13
2023-04-15T08:13:54.122Z,73.13
2023-04-15T08:14:54.089Z,73.13
2023-04-15T08:15:54.072Z,78.75
2023-04-15T08:16:54.022Z,78.75
2023-04-15T08:17:54.052Z,78.75
2023-04-15T08:18:53.959Z,78.75
2023-04-15T08:19:53.943Z,78.75
2023-04-15T08:20:53.883Z,78.75
2023-04-15T08:21:53.855Z,78.75
2023-04-15T08:22:53.816Z,78.75
2023-04-15T08:23:53.770Z,78.75
2023-04-15T08:24:53.738Z,78.75
2023-04-15T08:25:53.702Z,78.75
2023-04-15T08:26:53.664Z,78.75
2023-04-15T08:27:53.628Z,78.75
2023-04-15T08:28:53.596Z,78.75
2023-04-15T08:29:53.554Z,78.75
2023-04-15T08:30:53.520Z,78.75
2023-04-15T08:31:53.584Z,78.75
2023-04-15T08:32:53.492Z,78.75
2023-04-15T08:33:53.415Z,78.75
2023-04-15T08:34:53.383Z,78.75
2023-04-15T08:35:53.347Z,78.75
2023-04-15T08:36:53.311Z,78.75
2023-04-15T08:37:53.278Z,78.75
2023-04-15T08:38:53.243Z,78.75
2023-04-15T08:39:53.206Z,78.75
2023-04-15T08:40:53.172Z,73.13
2023-04-15T08:41:53.138Z,73.13
2023-04-15T08:42:53.118Z,73.13
2023-04-15T08:43:53.061Z,73.13
2023-04-15T08:44:53.035Z,73.13
2023-04-15T08:45:52.997Z,73.13
2023-04-15T08:46:52.997Z,73.13
2023-04-15T08:47:52.958Z,73.13
2023-04-15T08:48:52.891Z,73.13
2023-04-15T08:49:52.866Z,73.13
2023-04-15T08:50:52.829Z,73.13
2023-04-15T08:51:52.794Z,78.75
2023-04-15T08:52:52.780Z,73.13
2023-04-15T08:53:52.724Z,73.13
2023-04-15T08:54:52.691Z,73.13
2023-04-15T08:55:52.680Z,73.13
2023-04-15T08:56:52.722Z,73.13
2023-04-15T08:57:52.590Z,78.75
2023-04-15T08:58:52.552Z,78.75
2023-04-15T08:59:52.523Z,78.75
2023-04-15T09:00:52.528Z,78.75
2023-04-15T09:01:52.529Z,78.75
2023-04-15T09:02:52.510Z,78.75
2023-04-15T09:03:52.498Z,78.75
2023-04-15T09:04:52.344Z,78.75
2023-04-15T09:05:53.295Z,78.75
2023-04-15T09:06:52.299Z,84.38
2023-04-15T09:07:52.281Z,84.38
2023-04-15T09:08:52.222Z,84.38
2023-04-15T09:09:52.185Z,84.38
2023-04-15T09:10:52.173Z,84.38
2023-04-15T09:11:52.110Z,84.38
2023-04-15T09:12:52.074Z,90.00
2023-04-15T09:13:52.049Z,90.00
2023-04-15T09:14:52.022Z,90.00
2023-04-15T09:15:51.980Z,90.00
2023-04-15T09:16:51.973Z,90.00
2023-04-15T09:17:51.931Z,95.63
2023-04-15T09:18:51.899Z,95.63
2023-04-15T09:19:51.829Z,95.63
2023-04-15T09:20:51.799Z,95.63
2023-04-15T09:21:51.761Z,95.63
2023-04-15T09:22:51.742Z,95.63
2023-04-15T09:23:51.694Z,95.63
2023-04-15T09:24:51.675Z,95.63
2023-04-15T09:25:51.625Z,95.63
2023-04-15T09:26:51.595Z,95.63
2023-04-15T09:27:51.554Z,95.63
2023-04-15T09:28:51.530Z,95.63
2023-04-15T09:29:51.499Z,95.63
2023-04-15T09:30:51.467Z,95.63
2023-04-15T09:31:51.420Z,101.25
2023-04-15T09:32:51.427Z,101.25
2023-04-15T09:33:51.348Z,101.25
2023-04-15T09:34:51.315Z,101.25
2023-04-15T09:35:51.285Z,101.25
2023-04-15T09:36:51.298Z,101.25
2023-04-15T09:37:51.220Z,101.25
2023-04-15T09:38:51.184Z,101.25
2023-04-15T09:39:51.212Z,101.25
2023-04-15T09:40:51.113Z,101.25
2023-04-15T09:41:51.077Z,101.25
2023-04-15T09:42:51.046Z,101.25
2023-04-15T09:43:51.014Z,101.25
2023-04-15T09:44:50.975Z,101.25
2023-04-15T09:45:50.995Z,101.25
2023-04-15T09:46:50.924Z,101.25
2023-04-15T09:47:50.934Z,101.25
2023-04-15T09:48:50.840Z,101.25
2023-04-15T09:49:50.842Z,101.25
2023-04-15T09:50:50.772Z,101.25
2023-04-15T09:52:04.072Z,101.25
2023-04-15T09:52:50.708Z,101.25
2023-04-15T09:53:50.669Z,106.88
2023-04-15T09:54:50.642Z,106.88
2023-04-15T09:55:50.606Z,106.88
2023-04-15T09:56:50.572Z,106.88
2023-04-15T09:57:50.545Z,106.88
2023-04-15T09:58:50.516Z,106.88
2023-04-15T09:59:50.470Z,106.88
2023-04-15T10:00:50.439Z,112.50
2023-04-15T10:01:50.459Z,112.50
2023-04-15T10:02:50.463Z,112.50
2023-04-15T10:03:50.445Z,112.50
2023-04-15T10:04:50.316Z,112.50
2023-04-15T10:05:50.268Z,112.50
2023-04-15T10:06:50.238Z,112.50
2023-04-15T10:07:50.217Z,112.50
2023-04-15T10:08:50.170Z,112.50
2023-04-15T10:09:50.150Z,112.50
2023-04-15T10:10:50.102Z,112.50
2023-04-15T10:11:50.068Z,112.50
2023-04-15T10:12:50.032Z,118.13
2023-04-15T10:13:49.997Z,118.13
2023-04-15T10:14:49.977Z,118.13
2023-04-15T10:15:49.991Z,118.13
2023-04-15T10:16:49.915Z,123.75
2023-04-15T10:17:49.924Z,123.75
2023-04-15T10:18:49.836Z,123.75
2023-04-15T10:19:49.802Z,118.13
2023-04-15T10:20:49.766Z,123.75
2023-04-15T10:21:49.731Z,118.13
2023-04-15T10:22:49.705Z,123.75
2023-04-15T10:23:49.674Z,123.75
2023-04-15T10:24:49.634Z,118.13
2023-04-15T10:25:49.598Z,118.13
2023-04-15T10:26:49.631Z,118.13
2023-04-15T10:27:49.527Z,118.13
2023-04-15T10:28:49.536Z,118.13
2023-04-15T10:29:49.465Z,118.13
2023-04-15T10:30:49.438Z,118.13
2023-04-15T10:31:49.508Z,112.50
2023-04-15T10:32:49.390Z,112.50
2023-04-15T10:33:49.334Z,112.50
2023-04-15T10:34:49.301Z,106.88
2023-04-15T10:35:49.269Z,106.88
2023-04-15T10:36:49.242Z,101.25
2023-04-15T10:37:49.205Z,101.25
2023-04-15T10:38:49.173Z,101.25
2023-04-15T10:39:49.140Z,101.25
2023-04-15T10:40:49.104Z,95.63
2023-04-15T10:41:49.070Z,95.63
2023-04-15T10:42:49.036Z,101.25
2023-04-15T10:43:49.008Z,101.25
2023-04-15T10:44:48.981Z,106.88
2023-04-15T10:45:48.935Z,106.88
2023-04-15T10:46:48.915Z,106.88
2023-04-15T10:47:48.886Z,106.88
2023-04-15T10:48:48.834Z,106.88
2023-04-15T10:49:48.803Z,112.50
2023-04-15T10:50:48.780Z,106.88
2023-04-15T10:51:48.749Z,106.88
2023-04-15T10:52:48.710Z,106.88
2023-04-15T10:53:48.677Z,106.88
2023-04-15T10:54:48.644Z,106.88
2023-04-15T10:55:48.606Z,106.88
2023-04-15T10:56:48.568Z,101.25
2023-04-15T10:57:48.537Z,101.25
2023-04-15T10:58:48.543Z,101.25
2023-04-15T10:59:48.484Z,101.25
2023-04-15T11:00:48.456Z,101.25
2023-04-15T11:01:48.500Z,101.25
2023-04-15T11:02:48.496Z,106.88
2023-04-15T11:03:48.622Z,101.25
2023-04-15T11:04:48.387Z,101.25
2023-04-15T11:05:48.272Z,101.25
2023-04-15T11:06:48.243Z,106.88
2023-04-15T11:07:48.211Z,129.38
2023-04-15T11:08:48.210Z,146.25
2023-04-15T11:09:48.144Z,157.50
2023-04-15T11:10:48.109Z,157.50
2023-04-15T11:11:48.073Z,123.75
2023-04-15T11:12:48.055Z,123.75
2023-04-15T11:13:48.015Z,123.75
2023-04-15T11:14:47.973Z,163.13
2023-04-15T11:15:47.953Z,129.38
2023-04-15T11:16:47.936Z,129.38
2023-04-15T11:17:47.907Z,191.25
2023-04-15T11:18:47.884Z,135.00
2023-04-15T11:19:47.806Z,140.63
2023-04-15T11:20:47.777Z,219.38
2023-04-15T11:21:47.740Z,213.75
2023-04-15T11:22:47.710Z,208.13
2023-04-15T11:23:47.720Z,208.13
2023-04-15T11:24:47.646Z,213.75
2023-04-15T11:25:47.610Z,208.13
2023-04-15T11:26:47.577Z,213.75
2023-04-15T11:27:47.551Z,213.75
2023-04-15T11:28:47.532Z,151.88
2023-04-15T11:29:47.488Z,208.13
2023-04-15T11:30:47.455Z,213.75
2023-04-15T11:31:47.451Z,208.13
2023-04-15T11:32:47.404Z,140.63
2023-04-15T11:33:47.370Z,174.38
2023-04-15T11:34:47.312Z,191.25
2023-04-15T11:35:47.285Z,191.25
2023-04-15T11:36:47.257Z,135.00
2023-04-15T11:37:47.222Z,118.13
2023-04-15T11:38:47.196Z,157.50
2023-04-15T11:39:47.153Z,95.63
2023-04-15T11:40:47.406Z,101.25
2023-04-15T11:41:47.092Z,106.88
2023-04-15T11:42:49.992Z,174.38
2023-04-15T11:43:47.028Z,118.13
2023-04-15T11:44:46.994Z,118.13
2023-04-15T11:45:46.989Z,101.25
2023-04-15T11:46:46.931Z,90.00
2023-04-15T11:47:46.978Z,90.00
2023-04-15T11:48:46.928Z,90.00
2023-04-15T11:49:46.831Z,90.00
2023-04-15T11:50:46.806Z,90.00
2023-04-15T11:51:46.768Z,95.63
2023-04-15T11:52:46.733Z,95.63
2023-04-15T11:53:46.709Z,101.25
2023-04-15T11:54:46.666Z,112.50
2023-04-15T11:55:46.646Z,253.13
2023-04-15T11:56:46.599Z,112.50
2023-04-15T11:57:46.608Z,101.25
2023-04-15T11:58:46.686Z,84.38
2023-04-15T11:59:46.512Z,84.38
2023-04-15T12:00:46.475Z,90.00
2023-04-15T12:01:46.486Z,95.63
2023-04-15T12:02:46.538Z,101.25
2023-04-15T12:03:46.452Z,101.25
2023-04-15T12:04:46.502Z,101.25
2023-04-15T12:05:46.305Z,101.25
2023-04-15T12:06:46.268Z,106.88
2023-04-15T12:07:46.247Z,174.38
2023-04-15T12:08:46.210Z,129.38
2023-04-15T12:09:46.172Z,123.75
2023-04-15T12:10:46.140Z,151.88
2023-04-15T12:11:46.109Z,118.13
2023-04-15T12:12:46.070Z,112.50
2023-04-15T12:13:46.056Z,95.63
2023-04-15T12:14:46.007Z,90.00
2023-04-15T12:15:46.006Z,73.13
2023-04-15T12:16:49.512Z,73.13
2023-04-15T12:17:52.032Z,67.50
2023-04-15T12:18:45.968Z,67.50
2023-04-15T12:19:45.841Z,67.50
2023-04-15T12:20:45.843Z,61.88
2023-04-15T12:21:45.770Z,61.88
2023-04-15T12:22:45.745Z,61.88
2023-04-15T12:23:45.713Z,61.88
2023-04-15T12:24:45.675Z,67.50
2023-04-15T12:25:45.640Z,67.50
2023-04-15T12:26:45.606Z,67.50
2023-04-15T12:27:45.575Z,61.88
2023-04-15T12:28:45.605Z,61.88
2023-04-15T12:29:45.520Z,67.50
2023-04-15T12:30:45.478Z,73.13
2023-04-15T12:31:45.464Z,78.75
2023-04-15T12:32:45.431Z,84.38
2023-04-15T12:33:45.374Z,90.00
2023-04-15T12:34:45.352Z,90.00
2023-04-15T12:35:45.310Z,84.38
2023-04-15T12:36:45.291Z,78.75
2023-04-15T12:37:45.264Z,78.75
2023-04-15T12:38:45.224Z,84.38
2023-04-15T12:39:45.192Z,84.38
2023-04-15T12:40:45.143Z,78.75
2023-04-15T12:41:45.118Z,84.38
2023-04-15T12:42:45.085Z,95.63
2023-04-15T12:43:45.048Z,90.00
2023-04-15T12:44:45.024Z,84.38
2023-04-15T12:45:44.976Z,73.13
2023-04-15T12:46:45.013Z,67.50
2023-04-15T12:47:44.954Z,67.50
2023-04-15T12:48:44.887Z,73.13
2023-04-15T12:49:44.848Z,78.75
2023-04-15T12:50:44.815Z,78.75
2023-04-15T12:51:44.776Z,78.75
2023-04-15T12:52:44.745Z,84.38
2023-04-15T12:53:44.712Z,84.38
2023-04-15T12:54:44.692Z,78.75
2023-04-15T12:55:44.661Z,78.75
2023-04-15T12:56:44.622Z,78.75
2023-04-15T12:57:44.589Z,78.75